createdAt,value
2023-01-28T00:01:13.122Z,100029.92
2023-01-28T00:03:41.686Z,100031.27
2023-01-28T00:06:15.243Z,100030.25
2023-01-28T00:08:43.485Z,100031.63
2023-01-28T04:03:37.223Z,99996.37
2023-01-28T04:06:09.241Z,100006.70
2023-01-28T04:09:05.970Z,99999.23
2023-01-28T04:11:51.801Z,99995.27
2023-01-28T04:14:25.867Z,99991.23
2023-01-28T04:17:06.917Z,99990.23
2023-01-28T04:19:36.810Z,99993.30
2023-01-28T04:22:06.262Z,99989.08
2023-01-28T04:24:36.317Z,99989.64
2023-01-28T04:27:03.369Z,99989.23
2023-01-28T04:29:31.175Z,99988.31
2023-01-28T04:32:07.835Z,99989.91
2023-01-28T04:35:14.865Z,99995.44
2023-01-28T04:38:07.927Z,100001.08
2023-01-28T04:41:07.291Z,100006.13
2023-01-28T04:43:36.057Z,100004.30
2023-01-28T04:46:21.612Z,100007.09
2023-01-28T04:49:08.731Z,100007.98
2023-01-28T04:51:56.079Z,100008.33
2023-01-28T04:54:35.693Z,100007.90
2023-01-28T04:57:04.028Z,100009.36
2023-01-28T04:59:31.542Z,100004.05
2023-01-28T05:01:58.846Z,100005.77
2023-01-28T05:04:26.252Z,100001.80
2023-01-28T05:06:53.534Z,100000.77
2023-01-28T05:09:25.088Z,99999.25
2023-01-28T05:11:52.192Z,99998.09
2023-01-28T05:14:19.877Z,99995.84
2023-01-28T05:16:53.973Z,99990.65
2023-01-28T05:19:20.819Z,99994.39
2023-01-28T05:21:47.690Z,99991.10
2023-01-28T05:24:35.153Z,99986.64
2023-01-28T05:27:03.497Z,99989.09
2023-01-28T05:29:30.904Z,99989.29
2023-01-28T05:31:59.325Z,99990.00
2023-01-28T05:34:26.895Z,99992.39
2023-01-28T05:36:55.792Z,99997.23
2023-01-28T05:39:40.763Z,99996.08
2023-01-28T05:42:08.828Z,100000.77
2023-01-28T05:44:41.245Z,100001.62
2023-01-28T05:47:16.462Z,100001.27
2023-01-28T05:49:46.421Z,99999.91
2023-01-28T05:52:37.991Z,100002.85
2023-01-28T05:55:09.138Z,100000.65
2023-01-28T05:57:36.778Z,100001.54
2023-01-28T06:00:05.465Z,100004.14
2023-01-28T06:02:42.987Z,100005.33
2023-01-28T06:05:13.384Z,100005.02
2023-01-28T06:07:44.847Z,100000.23
2023-01-28T06:10:13.319Z,99996.11
2023-01-28T06:12:42.027Z,100001.77
2023-01-28T06:15:30.742Z,100005.89
2023-01-28T06:18:18.665Z,100008.10
2023-01-28T06:20:49.637Z,100006.52
2023-01-28T06:23:16.933Z,100009.34
2023-01-28T06:25:45.173Z,100006.27
2023-01-28T06:28:17.886Z,100011.60
2023-01-28T06:30:49.181Z,100015.38
2023-01-28T06:33:17.003Z,100014.35
2023-01-28T06:35:44.822Z,100018.88
2023-01-28T06:38:12.409Z,100009.79
2023-01-28T06:40:40.046Z,100007.05
2023-01-28T06:43:07.792Z,100006.71
2023-01-28T06:45:36.498Z,100006.33
2023-01-28T06:48:06.647Z,100012.49
2023-01-28T06:50:37.159Z,100019.73
2023-01-28T06:53:04.201Z,100023.20
2023-01-28T06:55:31.457Z,100021.27
2023-01-28T06:57:58.289Z,100019.02
2023-01-28T07:00:26.069Z,100023.84
2023-01-28T07:02:56.686Z,100022.30
2023-01-28T07:05:24.689Z,100015.11
2023-01-28T07:07:53.139Z,100015.34
2023-01-28T07:10:21.046Z,100016.92
2023-01-28T07:12:49.162Z,100016.76
2023-01-28T07:15:17.197Z,100017.08
2023-01-28T07:17:44.606Z,100014.98
2023-01-28T07:20:14.904Z,100014.48
2023-01-28T07:22:42.489Z,100014.69
2023-01-28T07:25:10.132Z,100016.25
2023-01-28T07:27:37.545Z,100015.58
2023-01-28T07:30:05.207Z,100011.11
2023-01-28T07:32:33.711Z,100010.92
2023-01-28T07:35:00.449Z,100011.61
2023-01-28T07:37:28.383Z,100013.05
2023-01-28T07:39:56.457Z,100013.57
2023-01-28T07:42:24.865Z,100017.67
2023-01-28T07:44:54.241Z,100017.68
2023-01-28T07:47:22.350Z,100024.90
2023-01-28T07:49:49.458Z,100025.61
2023-01-28T12:27:33.307Z,99872.50
2023-01-28T12:30:19.991Z,99870.65
2023-01-28T12:33:22.869Z,99856.61
2023-01-28T12:36:07.553Z,99850.06
2023-01-28T12:38:58.201Z,99847.77
2023-01-28T12:41:29.858Z,99845.42
2023-01-28T12:44:04.157Z,99844.77
2023-01-28T12:47:04.173Z,99841.35
2023-01-28T12:49:40.414Z,99837.55
2023-01-28T12:52:50.297Z,99840.13
2023-01-28T12:55:20.059Z,99830.60
2023-01-28T12:57:49.105Z,99826.44
2023-01-28T13:00:34.181Z,99829.36
2023-01-28T13:03:02.800Z,99827.29
2023-01-28T13:05:37.652Z,99824.86
2023-01-28T13:08:26.447Z,99824.48
2023-01-28T13:10:56.480Z,99822.94
2023-01-28T13:13:33.964Z,99822.94
2023-01-28T13:16:03.966Z,99823.65
2023-01-28T13:18:32.921Z,99821.75
2023-01-28T13:21:02.780Z,99821.02
2023-01-28T13:23:31.110Z,99820.16
2023-01-28T13:26:25.961Z,99824.61
2023-01-28T13:28:54.846Z,99823.36
2023-01-28T13:31:24.272Z,99821.10
2023-01-28T13:33:55.766Z,99823.17
2023-01-28T13:36:40.582Z,99826.81
2023-01-28T13:39:18.523Z,99832.92
2023-01-28T13:41:51.813Z,99827.60
2023-01-28T13:44:26.168Z,99829.16
2023-01-28T13:47:27.126Z,99829.02
2023-01-28T13:49:59.582Z,99825.76
2023-01-28T13:52:50.302Z,99829.21
2023-01-28T13:55:37.477Z,99823.36
2023-01-28T13:58:13.566Z,99823.20
2023-01-28T14:00:46.475Z,99823.20
2023-01-28T14:03:39.643Z,99821.98
2023-01-28T14:06:23.377Z,99828.21
2023-01-28T14:08:58.208Z,99830.29
2023-01-28T14:11:33.165Z,99828.39
2023-01-28T14:14:23.704Z,99830.64
2023-01-28T14:16:58.272Z,99824.45
2023-01-28T14:19:31.876Z,99825.65
2023-01-28T14:22:00.157Z,99828.23
2023-01-28T14:24:29.869Z,99829.61
2023-01-28T14:27:07.132Z,99831.51
2023-01-28T14:29:44.650Z,99831.50
2023-01-28T14:32:33.177Z,99828.39
2023-01-28T14:35:07.246Z,99826.14
2023-01-28T14:38:00.735Z,99828.02
2023-01-28T14:40:30.484Z,99827.66
2023-01-28T14:42:58.859Z,99833.17
2023-01-28T14:45:49.663Z,99834.02
2023-01-28T14:48:33.352Z,99834.00
2023-01-28T14:51:14.584Z,99836.23
2023-01-28T14:54:30.326Z,99838.29
2023-01-28T14:57:11.227Z,99835.50
2023-01-28T14:59:46.504Z,99844.29
2023-01-28T15:02:23.019Z,99844.30
2023-01-28T15:04:51.702Z,99845.16
2023-01-28T15:07:20.136Z,99849.11
2023-01-28T15:10:21.336Z,99852.89
2023-01-28T15:12:52.996Z,99858.38
2023-01-28T15:15:38.169Z,99859.02
2023-01-28T15:18:22.043Z,99858.66
2023-01-28T15:20:52.294Z,99860.23
2023-01-28T15:23:38.772Z,99860.20
2023-01-28T15:26:18.724Z,99864.98
2023-01-28T15:28:47.641Z,99867.71
2023-01-28T15:31:26.426Z,99863.92
2023-01-28T15:34:03.772Z,99866.30
2023-01-28T15:36:32.399Z,99866.64
2023-01-28T15:39:00.819Z,99867.16
2023-01-28T15:41:35.786Z,99865.95
2023-01-28T15:44:04.121Z,99862.13
2023-01-28T15:46:32.347Z,99867.61
2023-01-28T15:49:04.202Z,99867.05
2023-01-28T15:51:34.127Z,99869.41
2023-01-28T15:54:09.675Z,99866.98
2023-01-28T15:56:38.098Z,99866.50
2023-01-28T20:57:48.736Z,99924.39
2023-01-28T21:00:17.969Z,99926.41
2023-01-28T21:02:46.747Z,99923.60
2023-01-28T21:05:15.059Z,99919.59
2023-01-28T21:07:44.251Z,99916.52
2023-01-28T21:10:12.764Z,99913.77
2023-01-28T21:12:41.143Z,99910.59
2023-01-28T21:15:09.806Z,99912.02
2023-01-28T21:17:38.519Z,99907.80
2023-01-28T21:20:07.535Z,99909.96
2023-01-28T21:22:35.945Z,99906.73
2023-01-28T21:25:05.513Z,99905.35
2023-01-28T21:27:35.909Z,99903.60
2023-01-28T21:30:04.477Z,99904.61
2023-01-28T21:32:33.150Z,99904.94
2023-01-28T21:35:02.127Z,99907.02
2023-01-28T21:37:31.071Z,99909.92
2023-01-28T21:39:59.430Z,99912.30
2023-01-28T21:42:28.885Z,99915.85
2023-01-28T21:44:57.084Z,99916.14
2023-01-28T21:47:25.388Z,99918.02
2023-01-28T21:49:53.825Z,99918.01
2023-01-28T21:52:22.795Z,99921.80
2023-01-28T21:54:51.401Z,99917.63
2023-01-28T21:57:23.418Z,99919.64
2023-01-28T21:59:51.930Z,99919.39
2023-01-28T22:02:23.764Z,99921.42
2023-01-28T22:04:53.536Z,99922.67
2023-01-28T22:07:22.128Z,99926.45
2023-01-28T22:09:53.923Z,99923.96
2023-01-28T22:12:27.737Z,99923.25
2023-01-28T22:14:56.890Z,99921.14
2023-01-28T22:17:25.905Z,99919.27
2023-01-28T22:19:54.806Z,99918.27
2023-01-28T22:22:23.409Z,99913.99
2023-01-28T22:24:51.871Z,99911.22
2023-01-28T22:27:20.143Z,99909.46
2023-01-28T22:29:48.427Z,99903.75
2023-01-28T22:32:16.675Z,99907.89
2023-01-28T22:34:46.970Z,99904.70
2023-01-28T22:37:15.759Z,99901.79
2023-01-28T22:39:44.098Z,99898.31
2023-01-28T22:42:14.965Z,99904.29
2023-01-28T22:44:43.297Z,99905.62
2023-01-28T22:47:11.622Z,99906.86
2023-01-28T22:49:40.103Z,99907.62
2023-01-28T22:52:08.615Z,99907.45
2023-01-28T22:54:37.431Z,99907.13
2023-01-28T22:57:05.646Z,99901.23
2023-01-28T22:59:34.346Z,99897.91
2023-01-28T23:02:02.866Z,99894.64
2023-01-28T23:04:31.237Z,99890.40
2023-01-28T23:07:01.087Z,99882.52
2023-01-28T23:09:29.639Z,99883.50
2023-01-28T23:11:57.942Z,99887.05
2023-01-28T23:14:45.419Z,99886.30
2023-01-28T23:17:32.876Z,99885.25
2023-01-28T23:20:33.230Z,99884.95
2023-01-28T23:23:20.921Z,99880.78
2023-01-28T23:25:49.348Z,99880.07
2023-01-28T23:28:17.681Z,99876.71
2023-01-28T23:30:46.663Z,99875.77
2023-01-28T23:33:14.951Z,99869.37
2023-01-28T23:35:43.695Z,99873.20
2023-01-28T23:38:12.332Z,99872.17
2023-01-28T23:40:40.604Z,99870.76
2023-01-28T23:43:09.092Z,99872.73
2023-01-28T23:45:39.395Z,99874.73
2023-01-28T23:48:07.590Z,99876.05
2023-01-28T23:50:36.179Z,99875.38
2023-01-28T23:53:13.229Z,99872.92
2023-01-28T23:55:41.546Z,99869.66
2023-01-28T23:58:09.691Z,99864.63
